createdAt,value
2023-01-17T00:02:43.290Z,2.74
2023-01-17T00:11:06.705Z,2.72
2023-01-17T00:19:48.655Z,2.72
2023-01-17T00:28:12.059Z,2.71
2023-01-17T00:36:35.385Z,2.71
2023-01-17T00:45:17.340Z,2.66
2023-01-17T00:53:59.630Z,2.62
2023-01-17T01:02:42.459Z,2.63
2023-01-17T01:11:27.167Z,2.65
2023-01-17T01:20:09.076Z,2.62
2023-01-17T01:28:51.212Z,2.64
2023-01-17T01:37:14.470Z,2.67
2023-01-17T01:45:38.604Z,2.65
2023-01-17T01:54:21.264Z,2.65
2023-01-17T02:02:48.935Z,2.67
2023-01-17T02:11:12.399Z,2.70
2023-01-17T02:19:35.720Z,2.72
2023-01-17T02:28:12.762Z,2.74
2023-01-17T02:36:46.331Z,2.75
2023-01-17T02:45:16.178Z,2.79
2023-01-17T02:53:54.712Z,2.77
2023-01-17T03:02:18.537Z,2.75
2023-01-17T03:10:43.133Z,2.79
2023-01-17T03:19:06.395Z,2.80
2023-01-17T03:27:29.806Z,2.75
2023-01-17T03:35:54.799Z,2.74
2023-01-17T03:44:18.085Z,2.75
2023-01-17T03:52:41.475Z,2.72
2023-01-17T04:01:05.337Z,2.67
2023-01-17T04:09:28.644Z,2.68
2023-01-17T04:17:52.042Z,2.66
2023-01-17T04:26:15.211Z,2.63
2023-01-17T04:34:38.516Z,2.62
2023-01-17T04:43:01.763Z,2.63
2023-01-17T04:51:25.193Z,2.60
2023-01-17T04:59:48.498Z,2.59
2023-01-17T05:08:11.955Z,2.60
2023-01-17T05:16:35.489Z,2.58
2023-01-17T05:24:58.783Z,2.55
2023-01-17T05:33:22.061Z,2.52
2023-01-17T05:41:45.607Z,2.51
2023-01-17T05:50:10.152Z,2.50
2023-01-17T05:58:33.517Z,2.48
2023-01-17T06:06:56.753Z,2.47
2023-01-17T06:15:20.050Z,2.41
2023-01-17T06:23:43.369Z,2.28
2023-01-17T06:32:06.663Z,2.20
2023-01-17T06:40:30.644Z,2.14
2023-01-17T06:48:53.995Z,2.04
2023-01-17T06:57:17.214Z,1.87
2023-01-17T07:05:41.766Z,1.74
2023-01-17T07:14:05.771Z,1.69
2023-01-17T07:22:29.138Z,1.66
2023-01-17T07:30:53.039Z,1.60
2023-01-17T07:39:16.906Z,1.52
2023-01-17T07:47:41.235Z,1.55
2023-01-17T07:56:07.671Z,1.67
2023-01-17T08:04:35.516Z,2.50
2023-01-17T08:12:59.214Z,3.80
2023-01-17T08:21:23.071Z,4.19
2023-01-17T08:29:48.771Z,3.95
2023-01-17T08:38:12.001Z,3.57
2023-01-17T08:46:38.774Z,3.30
2023-01-17T08:55:02.315Z,3.16
2023-01-17T09:03:25.564Z,3.04
2023-01-17T09:11:48.839Z,3.08
2023-01-17T09:20:12.435Z,3.15
2023-01-17T09:28:41.207Z,3.18
2023-01-17T09:37:05.213Z,3.20
2023-01-17T09:45:34.077Z,3.19
2023-01-17T09:53:57.554Z,3.20
2023-01-17T10:03:15.960Z,3.25
2023-01-17T10:12:01.835Z,3.27
2023-01-17T10:20:55.822Z,3.25
2023-01-17T10:29:21.288Z,3.28
2023-01-17T10:37:46.989Z,3.29
2023-01-17T10:46:36.271Z,3.31
2023-01-17T10:55:22.439Z,3.35
2023-01-17T11:03:51.382Z,3.44
2023-01-17T11:12:35.634Z,3.48
2023-01-17T11:21:12.409Z,3.52
2023-01-17T11:29:39.300Z,3.58
2023-01-17T11:38:02.609Z,3.65
2023-01-17T11:46:28.436Z,3.74
2023-01-17T11:54:54.700Z,3.80
2023-01-17T12:03:45.038Z,3.80
2023-01-17T12:12:35.699Z,3.85
2023-01-17T12:21:14.642Z,3.95
2023-01-17T12:30:07.691Z,4.07
2023-01-17T12:38:38.992Z,4.14
2023-01-17T12:47:05.836Z,4.34
2023-01-17T12:55:58.492Z,4.55
2023-01-17T13:04:57.638Z,4.62
2023-01-17T13:13:27.290Z,4.56
2023-01-17T13:21:51.178Z,4.49
2023-01-17T13:30:22.771Z,4.46
2023-01-17T13:39:06.448Z,4.43
2023-01-17T13:47:38.924Z,4.40
2023-01-17T13:56:31.758Z,4.42
2023-01-17T14:05:24.177Z,4.40
2023-01-17T14:13:50.014Z,4.29
2023-01-17T14:22:20.359Z,4.11
2023-01-17T14:30:44.848Z,3.94
2023-01-17T14:39:22.656Z,3.96
2023-01-17T14:47:48.893Z,3.77
2023-01-17T14:56:17.634Z,3.55
2023-01-17T15:04:42.752Z,3.32
2023-01-17T15:13:10.342Z,3.06
2023-01-17T15:21:40.875Z,2.85
2023-01-17T15:30:07.049Z,2.74
2023-01-17T15:38:38.538Z,2.60
2023-01-17T15:47:03.160Z,2.47
2023-01-17T15:55:38.189Z,2.38
2023-01-17T16:04:01.508Z,2.29
2023-01-17T16:12:24.695Z,2.14
2023-01-17T16:20:53.409Z,2.01
2023-01-17T16:29:16.917Z,1.92
2023-01-17T16:37:40.235Z,1.88
2023-01-17T16:46:03.703Z,1.86
2023-01-17T16:54:27.390Z,1.81
2023-01-17T17:02:52.117Z,1.69
2023-01-17T17:11:22.913Z,1.54
2023-01-17T17:19:47.764Z,1.48
2023-01-17T17:28:11.835Z,1.43
2023-01-17T17:36:36.419Z,1.36
2023-01-17T17:44:59.629Z,1.22
2023-01-17T17:53:22.989Z,1.00
2023-01-17T18:01:47.692Z,0.75
2023-01-17T18:10:11.403Z,0.57
2023-01-17T18:18:36.933Z,0.43
2023-01-17T18:27:00.189Z,0.23
2023-01-17T18:35:23.581Z,0.03
2023-01-17T18:43:48.209Z,-0.02
2023-01-17T18:52:12.333Z,0.06
2023-01-17T19:00:35.804Z,0.11
2023-01-17T19:08:59.922Z,0.15
2023-01-17T19:17:23.250Z,0.15
2023-01-17T19:25:46.743Z,0.06
2023-01-17T19:34:14.701Z,0.03
2023-01-17T19:42:38.479Z,0.00
2023-01-17T19:51:10.738Z,0.07
2023-01-17T19:59:37.978Z,0.25
2023-01-17T20:08:02.726Z,0.35
2023-01-17T20:16:29.094Z,0.37
2023-01-17T20:24:52.602Z,0.44
2023-01-17T20:33:19.128Z,0.53
2023-01-17T20:41:49.819Z,0.57
2023-01-17T20:50:13.226Z,0.49
2023-01-17T20:58:36.557Z,0.53
2023-01-17T21:06:59.921Z,0.56
2023-01-17T21:15:23.174Z,0.45
2023-01-17T21:23:46.473Z,0.36
2023-01-17T21:32:09.872Z,0.25
2023-01-17T21:40:34.260Z,0.11
2023-01-17T21:48:58.034Z,0.06
2023-01-17T21:57:42.245Z,0.08
2023-01-17T22:06:06.790Z,0.08
2023-01-17T22:14:30.564Z,-0.02
2023-01-17T22:22:54.122Z,-0.06
2023-01-17T22:31:23.699Z,-0.04
2023-01-17T22:39:47.237Z,0.01
2023-01-17T22:48:10.981Z,0.08
2023-01-17T22:56:34.308Z,0.06
2023-01-17T23:04:57.727Z,0.09
2023-01-17T23:13:21.797Z,0.16
2023-01-17T23:22:03.691Z,0.14
2023-01-17T23:30:35.957Z,0.09
2023-01-17T23:38:59.754Z,0.12
2023-01-17T23:47:23.708Z,0.21
2023-01-17T23:55:46.994Z,0.29
